Montreal Mirabel, Quebec

12:19 AM EST on January 28, 2015 (GMT -0500)
Montreal International (Mirabel) | Change Station
CLOSE
Current Station
Airport
Location: Montreal Mirabel,
Elevation: 269 ft
Nearby Weather Stations

Elev 269 ft 45.68 °N, 74.04 °W | Updated 19 minutes ago

Overcast
Overcast
10 °F
Feels Like 2 °F
N
5
Wind Variable Wind from NNW

Today is forecast to be nearly the same temperature as yesterday.

Today
High -- | Low -- °F
--% Chance of Precip.
Yesterday
High -- | Low -- °F
Precip. -- in
7:22 AM 4:56 PM
First Quarter, 61% visible
Pressure 30.05 in
Visibility 25.0 miles
Clouds Scattered Clouds 9100 ft
Overcast 13000 ft
Windchill 2 °F
Dew Point -9 °F
Humidity 41%
Rainfall 0.00 in
Snow Depth Not available.
UV 0 out of 12
Pollen Not available.
Air Quality Not available.
Flu Activity Not available.
METAR CYMX 280500Z 34004KT 25SM SCT091 OVC130 M12/M23 A3002 RMK AC4AC4 SLP174

More Conditions Fewer Conditions

Pressure 30.05 in
Visibility 25.0 miles
Clouds Scattered Clouds 9100 ft
Overcast 13000 ft
Windchill 2 °F
Dew Point -9 °F
Humidity 41%
Rainfall 0.00 in
Snow Depth Not available.
UV 0 out of 12
Pollen Not available.
Air Quality Not available.
Flu Activity Not available.
METAR CYMX 280500Z 34004KT 25SM SCT091 OVC130 M12/M23 A3002 RMK AC4AC4 SLP174

More Conditions Fewer Conditions

10-Day Weather Forecast

Almanac

Astronomy

Jan. 28, 2015 Rise Set
Actual Time
Civil Twilight
Nautical Twilight
Astronomical Twilight
Moon
Length of Visible Light
Length of Day
Tomorrow will be .
, % of the Moon is Illuminated

Today's Extremes

Country Highs Country Lows

Community

WunderPhotos

Upload Photos

1,791,103 photos uploaded!

WunderBlogs® & News

Nearby

Air Quality

  Air Quality AQ Index Pollutant
Not available.

Snow Depth

Station Depth Elevation

Earthquake Activity

City Distance Mag. Time & Date
Minimum magnitude displayed is 2.5.

Coastal Water Temperatures

Place Temperature

Nearby Weather Stations